Latest Coastal Weather Observations for Gold Coast Seaway

IDQ60701

Issued at 4:13 am EST Sunday 14 April 2024 (issued every 10 minutes, with the page automatically refreshed every 10 minutes)

About coastal observations | Map of coastal stations | Coastal observations for QLD | Marine services | Other Formats
Station Details ID: 040764 Name: GOLD COAST SEAWAY Lat: -27.94 Lon: 153.43 Height: 2.98 m
Data from the previous 72 hours. | See also: Recent months at Gold Coast Seaway
Date/Time
EST
Wind Sea
Height
m
Swell Vis
km
Cloud Weather Temp
°C
Press
MSL
hPa
Rain since
9am
mm
Dir  Spd
kts
Gust
kts
Height
m
Period
s
Dir
14/04:00am WSW 4 5 - - - - - - - 20.0 1021.4 0.0
14/03:30am WSW 3 5 - - - - - - - 20.3 1021.3 0.0
14/03:00am WSW 5 6 - - - - - - - 20.5 1021.1 0.0
14/02:30am WSW 3 5 - - - - - - - 20.5 1021.1 0.0
14/02:00am WSW 3 4 - - - - - - - 20.7 1021.2 0.0
14/01:30am SW 4 5 - - - - - - - 20.7 1021.5 0.0
14/01:00am WSW 4 5 - - - - - - - 20.8 1021.7 0.0
14/12:30am SW 5 6 - - - - - - - 20.9 1021.9 0.0
14/12:00am SW 3 5 - - - - - - - 20.9 1022.0 0.0
 
Date/Time
EST
Wind Sea
Height
m
Swell Vis
km
Cloud Weather Temp
°C
Press
MSL
hPa
Rain since
9am
mm
Dir  Spd
kts
Gust
kts
Height
m
Period
s
Dir
13/11:30pm SW 2 4 - - - - - - - 21.0 1022.1 0.0
13/11:00pm WSW 4 5 - - - - - - - 21.2 1022.3 0.0
13/10:30pm NW 4 7 - - - - - - - 21.7 1022.2 0.0
13/10:00pm NNE 5 7 - - - - - - - 22.3 1022.2 0.0
13/09:30pm NE 5 7 - - - - - - - 22.8 1022.2 0.0
13/09:00pm NE 8 11 - - - - - - - 23.0 1022.2 0.0
13/08:30pm NE 8 10 - - - - - - - 23.1 1021.9 0.0
13/08:00pm NE 7 10 - - - - - - - 22.6 1021.7 0.0
13/07:30pm NE 9 12 - - - - - - - 23.2 1021.4 0.0
13/07:00pm NE 6 9 - - - - - - - 22.7 1021.1 0.0
13/06:30pm NE 7 10 - - - - - - - 22.9 1021.0 0.0
13/06:00pm ENE 7 8 - - - - - - - 23.3 1020.6 0.0
13/05:30pm ENE 9 12 - - - - - - - 23.3 1020.2 0.0
13/05:00pm ENE 9 13 - - - - - - - 23.5 1019.7 0.0
13/04:30pm ENE 9 13 - - - - - - - 23.6 1019.5 0.0
13/04:00pm ENE 9 11 - - - - - - - 24.3 1019.5 0.0
13/03:30pm ENE 9 11 - - - - - - - 23.9 1019.4 0.0
13/03:00pm E 9 13 - - - - - - - 23.5 1019.4 0.0
13/02:30pm E 10 12 - - - - - - - 23.6 1019.6 0.0
13/02:00pm E 8 11 - - - - - - - 24.5 1019.6 0.0
13/01:30pm E 7 10 - - - - - - - 25.1 1019.8 0.0
13/01:00pm E 9 11 - - - - - - - 24.3 1020.1 0.0
13/12:30pm ESE 8 10 - - - - - - - 24.9 1020.4 0.0
13/12:00pm ESE 8 9 - - - - - - - 24.9 1020.9 0.0
13/11:30am ESE 8 10 - - - - - - - 24.5 1021.4 0.0
13/11:00am SE 8 10 - - - - - - - 24.3 1021.7 0.0
13/10:30am SE 8 9 - - - - - - - 24.4 1022.0 0.0
13/10:00am SE 8 11 - - - - - - - 24.2 1022.0 0.0
13/09:30am SSE 6 9 - - - - - - - 24.4 1022.0 0.0
13/09:00am SSE 5 7 - - - - - - - 23.7 1021.8 0.0
13/08:30am S 5 8 - - - - - - - 22.8 1021.7 0.0
13/08:00am SSW 4 5 - - - - - - - 21.3 1021.6 0.0
13/07:30am WSW 4 5 - - - - - - - 20.0 1021.3 0.0
13/07:00am WSW 4 5 - - - - - - - 18.7 1020.8 0.0
13/06:30am SW 4 5 - - - - - - - 17.9 1020.6 0.0
13/06:00am SW 4 6 - - - - - - - 17.3 1020.4 0.0
13/05:30am SW 4 6 - - - - - - - 17.8 1020.2 0.0
13/05:00am SW 5 6 - - - - - - - 17.9 1019.9 0.0
13/04:30am SW 5 7 - - - - - - - 18.0 1019.5 0.0
13/04:00am SW 5 7 - - - - - - - 18.1 1019.4 0.0
13/03:30am SW 6 7 - - - - - - - 18.2 1019.0 0.0
13/03:00am WSW 6 8 - - - - - - - 18.5 1018.7 0.0
13/02:30am WSW 5 7 - - - - - - - 18.6 1018.9 0.0
13/02:00am SW 6 7 - - - - - - - 18.6 1019.1 0.0
13/01:30am WSW 5 7 - - - - - - - 18.7 1019.3 0.0
13/01:00am SW 6 8 - - - - - - - 18.8 1019.4 0.0
13/12:30am SW 6 8 - - - - - - - 19.0 1019.6 0.0
13/12:00am SSW 5 8 - - - - - - - 19.4 1019.6 0.0
 
Date/Time
EST
Wind Sea
Height
m
Swell Vis
km
Cloud Weather Temp
°C
Press
MSL
hPa
Rain since
9am
mm
Dir  Spd
kts
Gust
kts
Height
m
Period
s
Dir
12/11:30pm SSW 6 9 - - - - - - - 19.9 1019.9 0.0
12/11:00pm SSW 5 7 - - - - - - - 19.4 1020.0 0.0
12/10:30pm SW 7 9 - - - - - - - 19.8 1020.1 0.0
12/10:00pm SW 6 8 - - - - - - - 20.0 1020.1 0.0
12/09:30pm SW 7 9 - - - - - - - 20.2 1020.2 0.0
12/09:00pm SW 6 9 - - - - - - - 20.4 1020.2 0.0
12/08:30pm S 5 9 - - - - - - - 21.2 1019.9 0.0
12/08:00pm SSE 12 16 - - - - - - - 22.2 1019.6 0.0
12/07:30pm SSE 13 17 - - - - - - - 22.1 1019.4 0.0
12/07:00pm SE 15 19 - - - - - - - 22.2 1019.0 0.0
12/06:30pm SE 17 20 - - - - - - - 22.3 1018.8 0.0
12/06:00pm SSE 14 19 - - - - - - - 22.2 1018.5 0.0
12/05:30pm SE 16 20 - - - - - - - 22.4 1018.1 0.0
12/05:00pm SE 15 19 - - - - - - - 22.8 1017.9 0.0
12/04:30pm SE 17 21 - - - - - - - 23.2 1017.7 0.0
12/04:00pm SE 18 22 - - - - - - - 23.6 1017.4 0.0
12/03:30pm SE 18 22 - - - - - - - 24.0 1017.1 0.0
12/03:00pm SE 17 19 - - - - - - - 24.4 1017.3 0.0
12/02:30pm SE 15 19 - - - - - - - 24.9 1017.6 0.0
12/02:00pm SE 16 19 - - - - - - - 24.9 1017.6 0.0
12/01:30pm SE 14 18 - - - - - - - 25.2 1017.8 0.0
12/01:00pm SSE 11 14 - - - - - - - 25.6 1018.0 0.0
12/12:30pm SSE 11 15 - - - - - - - 25.7 1018.3 0.0
12/12:00pm SSE 10 16 - - - - - - - 25.4 1018.6 0.0
12/11:30am SSE 12 17 - - - - - - - 25.3 1019.0 0.0
12/11:00am SSE 9 14 - - - - - - - 25.4 1019.4 0.0
12/10:30am SSE 10 13 - - - - - - - 24.8 1019.7 0.0
12/10:00am SSE 10 15 - - - - - - - 24.9 1019.7 0.0
12/09:30am S 12 18 - - - - - - - 23.0 1019.9 0.0
12/09:00am SSE 12 16 - - - - - - - 23.6 1019.8 0.0
12/08:30am S 9 15 - - - - - - - 23.3 1019.5 0.0
12/08:00am SSW 7 13 - - - - - - - 22.1 1019.2 0.0
12/07:30am S 8 12 - - - - - - - 21.6 1019.1 0.0
12/07:00am SSW 5 8 - - - - - - - 20.2 1018.8 0.0
12/06:30am SSW 6 10 - - - - - - - 19.1 1018.6 0.0
12/06:00am SSW 5 8 - - - - - - - 18.5 1018.3 0.0
12/05:30am SW 5 7 - - - - - - - 18.7 1018.1 0.0
12/05:00am SW 6 8 - - - - - - - 18.9 1017.6 0.0
12/04:30am SW 5 7 - - - - - - - 19.0 1017.4 0.0
12/04:00am SW 6 9 - - - - - - - 19.3 1017.3 0.0
12/03:30am SW 7 10 - - - - - - - 19.2 1017.3 0.0
12/03:00am SSW 6 9 - - - - - - - 19.3 1017.3 0.0
12/02:30am SSW 8 14 - - - - - - - 20.0 1017.3 0.0
12/02:00am SSW 7 11 - - - - - - - 20.0 1017.7 0.0
12/01:30am S 8 13 - - - - - - - 19.9 1018.0 0.0
12/01:00am SSW 7 11 - - - - - - - 19.6 1018.2 0.0
12/12:30am SW 6 8 - - - - - - - 19.4 1018.4 0.0
12/12:00am SW 6 8 - - - - - - - 19.6 1018.5 0.0
 
Date/Time
EST
Wind Sea
Height
m
Swell Vis
km
Cloud Weather Temp
°C
Press
MSL
hPa
Rain since
9am
mm
Dir  Spd
kts
Gust
kts
Height
m
Period
s
Dir
11/11:30pm SW 5 8 - - - - - - - 19.8 1018.6 0.0
11/11:00pm SSW 4 8 - - - - - - - 20.0 1018.6 0.0
11/10:30pm SSW 6 9 - - - - - - - 20.1 1018.5 0.0
11/10:00pm SSW 6 9 - - - - - - - 20.2 1018.7 0.0
11/09:30pm S 7 9 - - - - - - - 20.3 1018.9 0.0
11/09:00pm SSW 8 12 - - - - - - - 20.8 1018.8 0.0
11/08:30pm S 8 13 - - - - - - - 21.1 1018.7 0.0
11/08:00pm S 11 17 - - - - - - - 21.4 1018.5 0.0
11/07:30pm S 10 15 - - - - - - - 21.4 1018.3 0.0
11/07:00pm S 9 14 - - - - - - - 21.4 1018.0 0.0
11/06:30pm S 11 17 - - - - - - - 21.6 1017.7 0.0
11/06:00pm S 12 18 - - - - - - - 21.9 1017.4 0.0
11/05:30pm SSE 13 20 - - - - - - - 22.6 1016.9 0.0
11/05:00pm SSE 12 20 - - - - - - - 23.2 1016.5 0.0
11/04:30pm SSE 14 19 - - - - - - - 23.8 1016.2 0.0
11/04:00pm SSE 14 19 - - - - - - - 24.2 1015.8 0.0
11/03:30pm SE 15 20 - - - - - - - 24.4 1015.5 0.0
11/03:00pm SE 17 20 - - - - - - - 24.8 1015.4 0.0
11/02:30pm SE 17 19 - - - - - - - 24.9 1015.4 0.0
11/02:00pm SE 14 17 - - - - - - - 25.6 1015.4 0.0
11/01:30pm SE 12 17 - - - - - - - 25.7 1015.5 0.0
11/01:00pm SE 12 16 - - - - - - - 25.4 1015.7 0.0
11/12:30pm SE 10 13 - - - - - - - 25.5 1016.1 0.0
11/12:00pm SE 11 15 - - - - - - - 25.3 1016.4 0.0
11/11:30am SE 10 13 - - - - - - - 25.3 1016.6 0.0
11/11:00am SSE 10 14 - - - - - - - 24.6 1017.0 0.0
11/10:30am SSE 12 15 - - - - - - - 24.2 1017.4 0.0
11/10:00am SSE 11 15 - - - - - - - 24.1 1017.2 0.0
11/09:30am SSE 11 15 - - - - - - - 23.5 1017.2 0.0
11/09:00am SSE 8 13 - - - - - - - 23.7 1017.3 0.0
11/08:30am SSW 7 10 - - - - - - - 22.6 1017.1 0.0
11/08:00am SW 4 6 - - - - - - - 21.0 1016.9 0.0
11/07:30am WSW 3 5 - - - - - - - 20.0 1016.7 0.0
11/07:00am W 3 5 - - - - - - - 18.2 1016.5 0.0
11/06:30am W 3 4 - - - - - - - 15.9 1016.2 0.0
11/06:00am WSW 4 6 - - - - - - - 17.3 1015.9 0.0
11/05:30am SSW 5 9 - - - - - - - 18.0 1015.6 0.0
11/05:00am S 7 11 - - - - - - - 18.0 1015.4 0.0
11/04:30am S 6 9 - - - - - - - 17.5 1015.1 0.0

Other formats

Comma delimited format used in spreadsheet applications
http://www.bom.gov.au/fwo/IDQ60701/IDQ60701.94580.axf

JavaScript Object Notation format (JSON) in row-major order
http://www.bom.gov.au/fwo/IDQ60701/IDQ60701.94580.json

Data quality

Most of these data are generated automatically and are frequently updated. Quality checks on data are not normally performed. It is possible for incorrect values to appear. Refer to information at About Latest Weather Observations and please check the disclaimer before using these data.